createdAt,value
2023-04-07T00:00:41.764Z,53.70
2023-04-07T00:05:43.600Z,51.30
2023-04-07T00:10:45.589Z,46.80
2023-04-07T00:15:47.297Z,53.30
2023-04-07T00:20:49.004Z,50.40
2023-04-07T00:30:52.371Z,46.80
2023-04-07T00:35:54.579Z,44.10
2023-04-07T00:41:00.276Z,48.30
2023-04-07T00:46:02.112Z,47.00
2023-04-07T00:51:05.042Z,44.40
2023-04-07T00:56:06.912Z,38.80
2023-04-07T01:01:15.474Z,37.00
2023-04-07T01:06:21.487Z,43.30
2023-04-07T01:11:28.026Z,37.30
2023-04-07T01:16:34.859Z,45.80
2023-04-07T01:21:38.301Z,35.60
2023-04-07T01:26:40.754Z,31.90
2023-04-07T01:31:43.377Z,35.30
2023-04-07T01:36:46.920Z,38.10
2023-04-07T01:41:51.434Z,33.60
2023-04-07T01:46:55.612Z,31.90
2023-04-07T01:51:58.229Z,23.10
2023-04-07T01:57:00.006Z,35.40
2023-04-07T02:02:01.953Z,34.40
2023-04-07T02:07:11.236Z,37.90
2023-04-07T02:12:17.687Z,34.70
2023-04-07T02:17:30.340Z,41.50
2023-04-07T02:22:33.439Z,26.30
2023-04-07T02:27:35.309Z,27.70
2023-04-07T02:32:36.994Z,34.20
2023-04-07T02:37:39.436Z,42.00
2023-04-07T02:42:41.306Z,44.20
2023-04-07T02:47:43.024Z,40.90
2023-04-07T02:52:44.744Z,38.20
2023-04-07T02:57:48.737Z,43.60
2023-04-07T03:03:00.417Z,44.40
2023-04-07T03:08:04.678Z,41.60
2023-04-07T03:13:08.356Z,46.40
2023-04-07T03:18:11.516Z,40.80
2023-04-07T03:23:15.165Z,45.10
2023-04-07T03:28:17.023Z,41.50
2023-04-07T03:33:19.028Z,42.30
2023-04-07T03:38:21.675Z,40.10
2023-04-07T03:43:26.717Z,41.90
2023-04-07T03:48:29.286Z,39.40
2023-04-07T03:53:57.136Z,46.00
2023-04-07T03:59:12.246Z,40.20
2023-04-07T04:07:11.184Z,50.90
2023-04-07T04:12:17.593Z,45.70
2023-04-07T04:17:35.066Z,48.00
2023-04-07T04:22:38.870Z,54.00
2023-04-07T04:27:41.788Z,51.30
2023-04-07T04:32:50.505Z,56.60
2023-04-07T04:37:54.922Z,51.10
2023-04-07T04:42:56.673Z,47.20
2023-04-07T04:47:59.636Z,46.80
2023-04-07T04:53:01.387Z,46.20
2023-04-07T04:58:03.182Z,39.30
2023-04-07T05:03:13.149Z,46.50
2023-04-07T05:08:17.266Z,51.20
2023-04-07T05:13:19.250Z,52.50
2023-04-07T05:18:21.458Z,45.40
2023-04-07T05:23:25.039Z,47.70
2023-04-07T05:28:27.232Z,47.80
2023-04-07T05:33:30.920Z,43.80
2023-04-07T05:38:32.735Z,40.00
2023-04-07T05:43:38.588Z,46.20
2023-04-07T05:48:41.027Z,28.60
2023-04-07T05:53:42.816Z,39.80
2023-04-07T05:58:46.263Z,34.90
2023-04-07T06:03:48.858Z,32.80
2023-04-07T06:08:56.086Z,18.90
2023-04-07T06:13:58.887Z,23.70
2023-04-07T06:19:01.223Z,28.00
2023-04-07T06:24:04.153Z,21.80
2023-04-07T06:34:07.808Z,21.30
2023-04-07T06:39:09.583Z,21.90
2023-04-07T06:44:11.335Z,16.40
2023-04-07T06:49:13.284Z,22.60
2023-04-07T06:54:15.463Z,20.20
2023-04-07T06:59:17.249Z,13.70
2023-04-07T07:04:19.162Z,22.50
2023-04-07T07:09:22.059Z,15.50
2023-04-07T07:14:23.728Z,18.40
2023-04-07T07:19:25.572Z,20.20
2023-04-07T07:24:29.241Z,20.50
2023-04-07T07:29:31.293Z,18.10
2023-04-07T07:34:33.336Z,24.30
2023-04-07T07:39:35.086Z,17.90
2023-04-07T07:44:36.770Z,21.40
2023-04-07T07:49:38.611Z,19.50
2023-04-07T07:54:40.805Z,22.30
2023-04-07T07:59:42.531Z,14.40
2023-04-07T08:04:44.749Z,16.80
2023-04-07T08:09:46.441Z,17.90
2023-04-07T08:19:51.169Z,24.50
2023-04-07T08:24:52.886Z,22.80
2023-04-07T08:35:03.819Z,25.50
2023-04-07T08:40:06.757Z,26.30
2023-04-07T08:45:09.899Z,16.80
2023-04-07T08:50:12.415Z,23.90
2023-04-07T08:55:14.668Z,26.80
2023-04-07T09:00:16.453Z,26.90
2023-04-07T09:05:18.146Z,28.50
2023-04-07T09:20:23.825Z,22.40
2023-04-07T09:25:29.950Z,17.60
2023-04-07T09:30:33.808Z,22.20
2023-04-07T09:35:54.504Z,19.90
2023-04-07T09:41:25.744Z,21.10
2023-04-07T09:46:29.415Z,11.40
2023-04-07T09:51:31.431Z,21.10
2023-04-07T09:56:33.594Z,27.40
2023-04-07T10:01:36.239Z,23.30
2023-04-07T10:06:38.047Z,21.70
2023-04-07T10:16:44.499Z,25.50
2023-04-07T10:21:51.799Z,17.00
2023-04-07T10:27:01.632Z,26.20
2023-04-07T10:32:03.821Z,26.30
2023-04-07T10:37:13.604Z,27.20
2023-04-07T10:42:41.029Z,21.00
2023-04-07T10:47:58.121Z,16.30
2023-04-07T10:53:07.238Z,20.40
2023-04-07T10:58:39.832Z,25.50
2023-04-07T11:03:52.478Z,21.20
2023-04-07T11:08:54.878Z,23.30
2023-04-07T11:13:56.593Z,21.70
2023-04-07T11:18:58.431Z,25.70
2023-04-07T11:24:00.159Z,21.00
2023-04-07T11:29:01.986Z,28.80
2023-04-07T11:34:05.517Z,26.20
2023-04-07T11:39:20.472Z,19.80
2023-04-07T11:44:22.229Z,23.10
2023-04-07T11:49:25.910Z,26.90
2023-04-07T11:54:27.980Z,25.80
2023-04-07T11:59:29.715Z,24.90
2023-04-07T12:09:36.304Z,27.50
2023-04-07T12:14:38.263Z,27.90
2023-04-07T12:19:40.046Z,24.40
2023-04-07T12:24:42.091Z,30.10
2023-04-07T12:29:43.974Z,26.70
2023-04-07T12:34:45.661Z,30.30
2023-04-07T12:44:48.920Z,26.20
2023-04-07T12:49:51.223Z,27.80
2023-04-07T12:54:53.533Z,26.40
2023-04-07T12:59:55.532Z,28.00
2023-04-07T13:04:57.195Z,27.50
2023-04-07T13:15:01.168Z,32.70
2023-04-07T13:20:04.471Z,31.50
2023-04-07T13:25:06.621Z,35.70
2023-04-07T13:30:11.175Z,36.00
2023-04-07T13:35:13.121Z,33.50
2023-04-07T13:50:18.134Z,36.70
2023-04-07T13:55:20.880Z,34.80
2023-04-07T14:00:22.611Z,33.00
2023-04-07T14:05:24.713Z,32.20
2023-04-07T14:10:27.359Z,30.00
2023-04-07T14:15:29.074Z,33.70
2023-04-07T14:20:30.727Z,32.70
2023-04-07T14:30:38.682Z,33.30
2023-04-07T14:35:40.734Z,32.50
2023-04-07T14:40:42.421Z,32.00
2023-04-07T14:45:45.464Z,31.90
2023-04-07T14:50:50.205Z,30.20
2023-04-07T14:55:58.085Z,32.30
2023-04-07T15:00:59.724Z,32.00
2023-04-07T15:11:07.478Z,28.90
2023-04-07T15:16:11.648Z,28.60
2023-04-07T15:21:14.553Z,30.70
2023-04-07T15:26:16.297Z,24.70
2023-04-07T15:31:18.406Z,29.90
2023-04-07T15:36:20.309Z,24.10
2023-04-07T15:41:23.293Z,22.80
2023-04-07T15:46:25.424Z,25.60
2023-04-07T15:51:27.760Z,29.70
2023-04-07T15:56:29.396Z,29.90
2023-04-07T16:11:34.296Z,24.90
2023-04-07T16:16:37.100Z,22.80
2023-04-07T16:21:39.473Z,16.40
2023-04-07T16:26:41.176Z,21.40
2023-04-07T16:31:44.300Z,26.40
2023-04-07T16:36:47.433Z,23.80
2023-04-07T16:41:49.214Z,24.60
2023-04-07T16:46:51.027Z,18.80
2023-04-07T16:51:52.775Z,21.30
2023-04-07T16:56:54.416Z,23.90
2023-04-07T17:01:56.180Z,29.50
2023-04-07T17:06:57.870Z,32.90
2023-04-07T17:17:02.265Z,34.10
2023-04-07T17:22:04.090Z,34.40
2023-04-07T17:27:05.818Z,31.60
2023-04-07T17:32:09.128Z,43.50
2023-04-07T17:37:10.967Z,45.50
2023-04-07T17:42:12.652Z,41.50
2023-04-07T17:47:14.355Z,44.10
2023-04-07T17:57:19.022Z,48.10
2023-04-07T18:02:21.380Z,51.30
2023-04-07T18:07:23.882Z,48.10
2023-04-07T18:12:25.668Z,47.50
2023-04-07T18:17:27.435Z,47.70
2023-04-07T18:22:29.579Z,49.10
2023-04-07T18:27:31.235Z,47.80
2023-04-07T18:32:33.015Z,44.20
2023-04-07T18:37:36.641Z,38.60
2023-04-07T18:42:38.412Z,37.60
2023-04-07T18:47:40.247Z,40.90
2023-04-07T18:52:42.319Z,41.60
2023-04-07T18:57:44.365Z,47.00
2023-04-07T19:02:46.353Z,44.70
2023-04-07T19:07:49.499Z,51.00
2023-04-07T19:12:51.311Z,54.70
2023-04-07T19:17:52.981Z,52.50
2023-04-07T19:22:54.682Z,47.00
2023-04-07T19:27:57.224Z,53.00
2023-04-07T19:32:59.303Z,66.90
2023-04-07T19:38:02.165Z,96.40
2023-04-07T19:43:03.852Z,90.40
2023-04-07T19:48:06.436Z,80.20
2023-04-07T19:53:08.428Z,106.80
2023-04-07T19:58:10.405Z,83.40
2023-04-07T20:03:12.414Z,91.40
2023-04-07T20:08:14.407Z,65.30
2023-04-07T20:13:16.201Z,57.00
2023-04-07T20:18:18.586Z,47.80
2023-04-07T20:23:22.214Z,47.40
2023-04-07T20:28:24.446Z,45.50
2023-04-07T20:33:26.132Z,40.50
2023-04-07T20:38:27.973Z,40.70
2023-04-07T20:43:29.678Z,36.40
2023-04-07T20:48:32.576Z,45.30
2023-04-07T20:53:34.443Z,39.90
2023-04-07T20:58:36.744Z,42.80
2023-04-07T21:03:38.650Z,41.30
2023-04-07T21:08:41.994Z,37.50
2023-04-07T21:13:48.054Z,42.10
2023-04-07T21:18:51.115Z,38.40
2023-04-07T21:23:52.963Z,38.40
2023-04-07T21:28:54.656Z,39.90
2023-04-07T21:33:56.284Z,36.30
2023-04-07T21:38:58.214Z,36.30
2023-04-07T21:44:01.883Z,34.10
2023-04-07T21:49:10.408Z,36.40
2023-04-07T21:54:17.205Z,35.30
2023-04-07T21:59:18.949Z,26.80
2023-04-07T22:04:21.897Z,26.50
2023-04-07T22:09:24.233Z,26.10
2023-04-07T22:14:26.613Z,26.40
2023-04-07T22:19:28.372Z,25.70
2023-04-07T22:24:30.080Z,30.10
2023-04-07T22:29:31.781Z,30.50
2023-04-07T22:34:33.473Z,31.40
2023-04-07T22:39:35.717Z,41.70
2023-04-07T22:44:37.437Z,37.90
2023-04-07T22:49:39.434Z,40.30
2023-04-07T22:54:41.170Z,41.20
2023-04-07T22:59:42.934Z,55.70
2023-04-07T23:04:44.656Z,48.60
2023-04-07T23:09:47.116Z,44.70
2023-04-07T23:14:54.379Z,48.50
2023-04-07T23:19:56.240Z,49.40
2023-04-07T23:24:58.321Z,54.30
2023-04-07T23:30:00.069Z,41.10
2023-04-07T23:35:01.860Z,32.10
2023-04-07T23:40:06.507Z,37.80
2023-04-07T23:45:09.748Z,42.90
2023-04-07T23:50:13.350Z,40.80
2023-04-07T23:55:15.102Z,43.60
